Time;durP1;ratioP1;P1;durP2;ratioP2;P2;SDS_P1;SDS_P2;PMS_P1;PMS_P2;Temp;Humidity;BMP_temperature;BMP_pressure;BME280_temperature;BME280_humidity;BME280_pressure;Samples;Min_cycle;Max_cycle;Signal;HPM_P1;HPM_P2
2021/06/09 00:00:13;;;;;;;;;;;14.90;99.90;;;13.54;85.33;101850.81;3520365;40;102335;-41
2021/06/09 00:02:41;;;;;;;;;;;14.90;99.90;;;13.53;85.27;101858.22;3520774;40;102409;-40
2021/06/09 00:05:09;;;;;;;;;;;14.90;99.90;;;13.51;85.40;101857.56;3521185;40;103181;-40
2021/06/09 00:07:36;;;;;;;;;;;14.90;99.90;;;13.52;85.79;101851.00;3521084;40;102806;-40
2021/06/09 00:10:05;;;;;;;;;;;14.90;99.90;;;13.50;86.11;101850.38;3520430;40;102275;-44
2021/06/09 00:12:35;;;;;;;;;;;14.90;99.90;;;13.49;85.70;101855.03;3520441;40;102420;-40
2021/06/09 00:15:06;;;;;;;;;;;14.90;99.90;;;13.48;85.88;101852.50;3520816;40;103095;-40
2021/06/09 00:17:33;;;;;;;;;;;14.90;99.90;;;13.46;85.86;101857.34;3520523;40;102277;-40
2021/06/09 00:20:01;;;;;;;;;;;14.80;99.90;;;13.43;85.82;101849.53;3520659;40;102350;-40
2021/06/09 00:22:29;;;;;;;;;;;14.80;99.90;;;13.41;85.49;101851.59;3520780;40;102603;-40
2021/06/09 00:24:57;;;;;;;;;;;14.80;99.90;;;13.40;85.54;101855.41;3519752;40;102411;-40
2021/06/09 00:27:25;;;;;;;;;;;14.80;99.90;;;13.37;85.62;101846.53;3520975;40;102284;-40
2021/06/09 00:29:53;;;;;;;;;;;14.70;99.90;;;13.36;85.52;101849.47;3520648;40;104379;-46
2021/06/09 00:32:20;;;;;;;;;;;14.70;99.90;;;13.31;85.42;101847.38;3520333;40;102393;-40
2021/06/09 00:34:51;;;;;;;;;;;14.60;99.90;;;13.24;85.52;101846.47;3520645;39;104076;-40
2021/06/09 00:37:18;;;;;;;;;;;14.60;99.90;;;13.20;85.46;101848.81;3521118;40;102173;-40
2021/06/09 00:39:45;;;;;;;;;;;14.60;99.90;;;13.16;85.43;101852.16;3520674;40;102135;-40
2021/06/09 00:42:19;;;;;;;;;;;14.60;99.90;;;13.09;85.48;101847.50;3520239;40;102821;-40
2021/06/09 00:44:48;;;;;;;;;;;14.50;99.90;;;13.07;85.96;101846.84;3520383;40;103272;-40
2021/06/09 00:47:22;;;;;;;;;;;14.50;99.90;;;12.94;86.11;101831.22;3520860;40;102856;-40
2021/06/09 00:49:51;;;;;;;;;;;14.40;99.90;;;13.00;86.10;101840.50;3521317;40;103119;-41
2021/06/09 00:52:36;;;;;;;;;;;14.40;99.90;;;12.96;86.08;101850.16;3520779;40;102292;-40
2021/06/09 00:55:04;;;;;;;;;;;14.30;99.90;;;12.94;86.12;101838.56;3520185;40;103260;-40
2021/06/09 00:57:32;;;;;;;;;;;14.40;99.90;;;12.93;86.11;101839.63;3520421;40;102498;-40
2021/06/09 00:59:59;;;;;;;;;;;14.30;99.90;;;12.92;86.00;101840.66;3519310;40;106262;-40
2021/06/09 01:02:27;;;;;;;;;;;14.30;99.90;;;12.89;85.96;101844.69;3520483;40;102237;-40
2021/06/09 01:04:55;;;;;;;;;;;14.30;99.90;;;12.87;86.29;101840.44;3520372;39;102549;-41
2021/06/09 01:07:22;;;;;;;;;;;14.30;99.90;;;12.86;86.60;101838.75;3520417;40;102294;-40
2021/06/09 01:09:49;;;;;;;;;;;14.20;99.90;;;12.85;86.62;101831.59;3520450;40;103614;-40
2021/06/09 01:12:18;;;;;;;;;;;14.20;99.90;;;12.86;86.88;101822.31;3520133;40;102361;-40
2021/06/09 01:14:45;;;;;;;;;;;14.30;99.90;;;12.83;86.91;101829.03;3520342;40;102559;-41
2021/06/09 01:17:12;;;;;;;;;;;14.20;99.90;;;12.80;86.84;101832.19;3520143;40;102292;-40
2021/06/09 01:19:40;;;;;;;;;;;14.20;99.90;;;12.76;86.71;101823.53;3520216;40;104007;-40
2021/06/09 01:22:07;;;;;;;;;;;14.20;99.90;;;12.74;86.62;101833.00;3520236;40;102125;-40
2021/06/09 01:24:35;;;;;;;;;;;14.20;99.90;;;12.71;86.32;101831.50;3520230;40;102414;-40
2021/06/09 01:27:03;;;;;;;;;;;14.10;99.90;;;12.65;86.50;101829.56;3520048;40;102412;-41
2021/06/09 01:29:30;;;;;;;;;;;14.10;99.90;;;12.63;86.94;101829.78;3520305;40;103418;-41
2021/06/09 01:31:58;;;;;;;;;;;14.00;99.90;;;12.61;86.84;101825.56;3519871;40;102270;-40
2021/06/09 01:34:25;;;;;;;;;;;14.00;99.90;;;12.58;86.93;101825.97;3520161;40;102163;-40
2021/06/09 01:36:53;;;;;;;;;;;14.00;99.90;;;12.55;86.87;101829.94;3520265;40;102980;-40
2021/06/09 01:39:20;;;;;;;;;;;14.00;99.90;;;12.51;86.79;101831.38;3520516;40;102302;-41
2021/06/09 01:41:49;;;;;;;;;;;13.90;99.90;;;12.57;86.40;101838.78;3520569;40;102344;-40
2021/06/09 01:44:17;;;;;;;;;;;13.90;99.90;;;12.76;90.73;101837.25;3520190;40;102398;-40
2021/06/09 01:46:44;;;;;;;;;;;14.10;99.90;;;12.73;91.13;101839.53;3520315;40;102209;-40
2021/06/09 01:49:14;;;;;;;;;;;14.10;99.90;;;12.65;90.86;101844.13;3520123;40;103279;-40
2021/06/09 01:51:42;;;;;;;;;;;14.10;99.90;;;12.59;90.32;101824.91;3520178;40;102333;-40
2021/06/09 01:54:10;;;;;;;;;;;14.00;99.90;;;12.56;89.98;101828.88;3520028;40;103316;-41
2021/06/09 01:56:38;;;;;;;;;;;14.00;99.90;;;12.51;90.02;101834.97;3519975;40;102398;-40
2021/06/09 01:59:18;;;;;;;;;;;14.00;99.90;;;12.49;89.73;101828.88;3519971;40;103371;-41
2021/06/09 02:01:47;;;;;;;;;;;13.90;99.90;;;12.45;89.76;101827.56;3520078;40;102270;-41
2021/06/09 02:04:17;;;;;;;;;;;13.90;99.90;;;12.40;89.43;101826.47;3519826;40;103280;-40
2021/06/09 02:06:45;;;;;;;;;;;13.90;99.90;;;12.38;88.79;101826.66;3511511;40;102455;-40
2021/06/09 02:09:14;;;;;;;;;;;13.80;99.90;;;12.36;88.43;101835.09;3520488;40;104542;-40
2021/06/09 02:11:43;;;;;;;;;;;13.80;99.90;;;12.34;88.23;101825.38;3520123;40;102654;-40
2021/06/09 02:14:12;;;;;;;;;;;13.80;99.90;;;12.37;88.96;101828.56;3519547;40;102226;-42
2021/06/09 02:16:42;;;;;;;;;;;13.80;99.90;;;12.37;89.66;101825.84;3520137;40;102330;-40
2021/06/09 02:19:10;;;;;;;;;;;13.80;99.90;;;12.34;89.32;101825.38;3519878;40;103331;-40
2021/06/09 02:21:40;;;;;;;;;;;13.70;99.90;;;12.29;89.07;101819.66;3519702;40;102429;-40
2021/06/09 02:24:09;;;;;;;;;;;13.70;99.90;;;12.26;88.87;101834.59;3519611;40;103964;-40
2021/06/09 02:26:38;;;;;;;;;;;13.70;99.90;;;12.22;88.72;101825.09;3646796;22;103093;-41
2021/06/09 02:29:08;;;;;;;;;;;13.60;99.90;;;12.20;88.59;101829.91;3511533;40;103665;-41
2021/06/09 02:31:38;;;;;;;;;;;13.60;99.90;;;12.12;88.57;101813.66;3520159;40;102157;-42
2021/06/09 02:34:12;;;;;;;;;;;13.60;99.90;;;12.16;88.36;101821.25;3510883;40;104126;-41
2021/06/09 02:36:41;;;;;;;;;;;13.60;99.90;;;12.15;88.21;101826.94;3511635;40;102990;-41
2021/06/09 02:39:10;;;;;;;;;;;13.60;99.90;;;12.11;88.29;101829.22;3510296;40;102205;-41
2021/06/09 02:41:38;;;;;;;;;;;13.50;99.90;;;12.08;88.16;101824.16;3509970;40;102194;-42
2021/06/09 02:44:06;;;;;;;;;;;13.50;99.90;;;12.03;88.34;101824.72;3509587;40;102363;-41
2021/06/09 02:46:49;;;;;;;;;;;13.50;99.90;;;12.01;88.86;101831.47;3509974;40;102329;-41
2021/06/09 02:49:22;;;;;;;;;;;13.40;99.90;;;11.99;89.05;101831.59;3511527;40;102190;-42
2021/06/09 02:52:14;;;;;;;;;;;13.40;99.90;;;11.99;88.98;101833.50;3511208;40;102284;-41
2021/06/09 02:54:57;;;;;;;;;;;13.40;99.90;;;11.95;88.85;101833.03;3511238;40;102156;-41
2021/06/09 02:57:54;;;;;;;;;;;13.40;99.90;;;11.93;88.67;101835.13;3511506;40;102438;-46
2021/06/09 03:00:44;;;;;;;;;;;13.40;99.90;;;11.88;88.81;101824.78;3511344;40;103125;-41
2021/06/09 03:03:17;;;;;;;;;;;13.30;99.90;;;11.85;88.71;101824.34;3511434;40;102380;-41
2021/06/09 03:05:59;;;;;;;;;;;13.30;99.90;;;11.80;88.49;101828.53;3511639;40;102198;-41
2021/06/09 03:08:29;;;;;;;;;;;13.20;99.90;;;11.79;88.28;101831.44;3511159;40;102175;-41
2021/06/09 03:11:02;;;;;;;;;;;13.20;99.90;;;11.78;88.40;101840.69;3511146;40;102343;-42
2021/06/09 03:14:01;;;;;;;;;;;13.20;99.90;;;11.76;88.50;101834.56;3511581;40;102317;-41
2021/06/09 03:16:36;;;;;;;;;;;13.20;99.90;;;11.75;88.65;101835.59;3511072;40;102383;-41
2021/06/09 03:19:07;;;;;;;;;;;13.20;99.90;;;11.72;89.05;101828.63;3510928;40;102447;-41
2021/06/09 03:21:40;;;;;;;;;;;13.20;99.90;;;11.74;89.63;101828.44;3511310;40;104216;-41
2021/06/09 03:24:23;;;;;;;;;;;13.20;99.90;;;11.74;89.38;101825.72;3511186;40;102374;-41
2021/06/09 03:27:02;;;;;;;;;;;13.20;99.90;;;11.75;90.06;101825.50;3510911;40;102391;-41
2021/06/09 03:29:49;;;;;;;;;;;13.20;99.90;;;11.75;90.49;101821.94;3511663;40;102298;-40
2021/06/09 03:32:52;;;;;;;;;;;13.20;99.90;;;11.76;90.32;101824.47;3511329;40;103050;-41
2021/06/09 03:35:26;;;;;;;;;;;13.20;99.90;;;11.77;90.42;101831.63;3509558;40;102457;-41
2021/06/09 03:37:56;;;;;;;;;;;13.20;99.90;;;11.76;90.62;101834.56;3511363;40;102311;-41
2021/06/09 03:40:38;;;;;;;;;;;13.20;99.90;;;11.74;90.39;101831.19;3511120;40;102270;-41
2021/06/09 03:43:08;;;;;;;;;;;13.20;99.90;;;11.74;90.33;101826.53;3510855;40;103171;-41
2021/06/09 03:45:45;;;;;;;;;;;13.20;99.90;;;11.74;90.29;101823.81;3511020;40;102461;-41
2021/06/09 03:48:15;;;;;;;;;;;13.20;99.90;;;11.73;89.83;101824.03;3511405;40;102251;-41
2021/06/09 03:50:46;;;;;;;;;;;13.20;99.90;;;11.74;90.08;101822.97;3510867;40;102738;-41
2021/06/09 03:53:14;;;;;;;;;;;13.20;99.90;;;11.72;89.83;101822.34;3510940;40;104051;-41
2021/06/09 03:55:44;;;;;;;;;;;13.20;99.90;;;11.70;89.66;101824.41;3510771;40;102411;-41
2021/06/09 03:58:14;;;;;;;;;;;13.10;99.90;;;11.69;89.91;101833.66;3511817;40;102318;-41
2021/06/09 04:00:44;;;;;;;;;;;13.10;99.90;;;11.72;90.22;101830.53;3511508;40;102415;-41
2021/06/09 04:03:13;;;;;;;;;;;13.20;99.90;;;11.71;90.06;101831.59;3510815;40;102643;-41
2021/06/09 04:05:42;;;;;;;;;;;13.20;99.90;;;11.72;90.35;101823.16;3511134;40;102150;-41
2021/06/09 04:08:12;;;;;;;;;;;13.10;99.90;;;11.76;90.45;101826.38;3510946;40;102267;-41
2021/06/09 04:10:44;;;;;;;;;;;13.20;99.90;;;11.76;90.56;101824.47;3502037;40;102730;-41
2021/06/09 04:13:12;;;;;;;;;;;13.20;99.90;;;11.75;90.39;101824.69;3510633;40;103224;-41
2021/06/09 04:15:40;;;;;;;;;;;13.20;99.90;;;11.76;90.25;101823.63;3511559;40;103039;-41
2021/06/09 04:18:09;;;;;;;;;;;13.20;99.90;;;11.79;90.48;101823.22;3511004;40;102258;-41
2021/06/09 04:20:39;;;;;;;;;;;13.20;99.90;;;11.81;90.57;101823.88;3511009;40;103130;-41
2021/06/09 04:23:09;;;;;;;;;;;13.20;99.90;;;11.83;90.42;101824.53;3510686;40;103139;-41
2021/06/09 04:25:37;;;;;;;;;;;13.20;99.90;;;11.89;90.90;101828.38;3510967;40;102387;-41
2021/06/09 04:28:07;;;;;;;;;;;13.20;99.90;;;11.94;91.16;101817.69;3511224;40;104116;-42
2021/06/09 04:30:35;;;;;;;;;;;13.30;99.90;;;12.06;91.48;101827.06;3510696;40;102406;-41
2021/06/09 04:33:07;;;;;;;;;;;13.40;99.90;;;12.25;91.91;101824.69;3510257;40;102370;-41
2021/06/09 04:35:44;;;;;;;;;;;13.50;99.90;;;12.33;91.91;101831.91;3511345;40;102335;-41
2021/06/09 04:38:18;;;;;;;;;;;13.60;99.90;;;12.42;92.19;101827.97;3511056;40;104226;-41
2021/06/09 04:40:49;;;;;;;;;;;13.70;99.90;;;12.55;92.27;101834.59;3510843;40;102309;-42
2021/06/09 04:43:17;;;;;;;;;;;13.80;99.90;;;12.66;92.13;101828.53;3510652;40;102810;-41
2021/06/09 04:45:44;;;;;;;;;;;13.90;99.90;;;12.79;91.99;101827.75;3511033;40;102441;-41
2021/06/09 04:48:14;;;;;;;;;;;14.00;99.90;;;12.94;91.82;101831.22;3510728;40;102175;-41
2021/06/09 04:50:43;;;;;;;;;;;14.10;99.90;;;13.13;91.32;101830.66;3510277;40;102360;-41
2021/06/09 04:53:11;;;;;;;;;;;14.30;99.90;;;13.30;91.14;101822.91;3510048;40;103539;-41
2021/06/09 04:55:59;;;;;;;;;;;14.50;99.90;;;13.52;90.81;101826.34;3510496;40;102410;-41
2021/06/09 04:58:27;;;;;;;;;;;14.60;99.90;;;13.80;90.80;101817.97;3510182;40;103339;-41
2021/06/09 05:00:54;;;;;;;;;;;14.90;99.90;;;14.02;90.89;101820.50;3510476;40;102401;-41
2021/06/09 05:03:22;;;;;;;;;;;15.10;99.90;;;14.20;90.20;101825.34;3510724;40;103253;-42
2021/06/09 05:05:50;;;;;;;;;;;15.30;99.90;;;14.39;89.53;101820.03;3510708;40;102131;-42
2021/06/09 05:08:18;;;;;;;;;;;15.40;99.90;;;14.63;89.07;101825.91;3510726;40;102288;-41
2021/06/09 05:10:47;;;;;;;;;;;15.60;99.90;;;14.80;89.07;101816.16;3510287;40;102210;-41
2021/06/09 05:13:23;;;;;;;;;;;15.80;99.90;;;15.03;89.02;101823.03;3510727;40;102306;-41
2021/06/09 05:16:00;;;;;;;;;;;16.00;99.90;;;15.23;88.59;101813.88;3510644;40;102942;-41
2021/06/09 05:18:36;;;;;;;;;;;16.20;99.90;;;15.47;87.63;101825.16;3510886;40;103061;-41
2021/06/09 05:21:05;;;;;;;;;;;16.40;99.90;;;15.65;87.51;101824.41;3510622;40;102677;-41
2021/06/09 05:23:39;;;;;;;;;;;16.60;99.90;;;15.88;86.99;101825.72;3510742;40;102573;-41
2021/06/09 05:26:10;;;;;;;;;;;16.80;99.90;;;16.11;87.08;101822.34;3510534;40;104734;-42
2021/06/09 05:28:45;;;;;;;;;;;17.00;99.90;;;16.32;86.39;101826.63;3510534;40;103132;-41
2021/06/09 05:31:13;;;;;;;;;;;17.20;99.90;;;16.54;85.51;101818.78;3510807;40;102302;-42
2021/06/09 05:33:42;;;;;;;;;;;17.50;99.90;;;16.67;84.88;101811.41;3510439;40;102323;-41
2021/06/09 05:36:12;;;;;;;;;;;17.60;99.90;;;16.92;84.46;101819.63;3510581;40;102422;-40
2021/06/09 05:38:41;;;;;;;;;;;17.80;99.90;;;17.05;82.64;101820.53;3510934;40;102308;-41
2021/06/09 05:41:10;;;;;;;;;;;17.90;99.90;;;17.20;82.51;101822.88;3510674;40;102402;-43
2021/06/09 05:43:40;;;;;;;;;;;18.10;99.90;;;17.38;82.51;101828.34;3510849;40;102477;-42
2021/06/09 05:46:09;;;;;;;;;;;18.30;99.90;;;17.60;81.87;101825.06;3510581;40;102734;-41
2021/06/09 05:48:41;;;;;;;;;;;18.40;99.90;;;17.77;79.73;101828.00;3501714;40;103034;-42
2021/06/09 05:51:10;;;;;;;;;;;18.60;99.90;;;17.95;79.35;101823.47;3510735;40;102295;-41
2021/06/09 05:53:38;;;;;;;;;;;18.80;99.90;;;18.17;79.75;101829.28;3509616;40;103896;-41
2021/06/09 05:56:06;;;;;;;;;;;18.90;99.90;;;18.34;77.87;101834.09;3510288;40;102483;-41
2021/06/09 05:58:33;;;;;;;;;;;19.10;99.90;;;18.52;78.24;101831.19;3510268;40;102269;-42
2021/06/09 06:01:08;;;;;;;;;;;19.30;99.90;;;18.67;76.12;101830.69;3510144;40;102370;-41
2021/06/09 06:03:41;;;;;;;;;;;19.50;99.90;;;18.89;77.23;101831.97;3510405;40;102103;-42
2021/06/09 06:06:11;;;;;;;;;;;19.70;99.90;;;19.03;74.98;101827.88;3510080;40;102262;-41
2021/06/09 06:08:41;;;;;;;;;;;19.80;99.90;;;19.14;72.29;101828.91;3510160;40;102279;-42
2021/06/09 06:11:13;;;;;;;;;;;19.90;99.90;;;19.32;73.33;101829.81;3510648;40;102789;-42
2021/06/09 06:13:43;;;;;;;;;;;20.10;99.90;;;19.44;72.00;101832.53;3510450;40;103224;-42
2021/06/09 06:16:18;;;;;;;;;;;20.20;99.90;;;19.57;69.98;101832.22;3510410;40;102161;-41
2021/06/09 06:18:48;;;;;;;;;;;20.40;99.90;;;19.71;70.72;101837.44;3510159;40;103463;-42
2021/06/09 06:21:17;;;;;;;;;;;20.50;99.90;;;19.87;71.26;101833.00;3510100;40;102407;-42
2021/06/09 06:23:45;;;;;;;;;;;20.60;99.90;;;20.08;71.21;101839.75;3510093;40;102148;-42
2021/06/09 06:26:18;;;;;;;;;;;20.80;99.90;;;20.19;66.91;101843.53;3510258;40;102227;-42
2021/06/09 06:28:50;;;;;;;;;;;20.90;99.90;;;20.21;66.38;101836.66;3510215;40;103356;-41
2021/06/09 06:31:29;;;;;;;;;;;21.00;99.90;;;20.39;66.17;101843.00;3510437;40;102938;-42
2021/06/09 06:33:59;;;;;;;;;;;21.10;99.90;;;20.50;66.54;101839.28;3510163;40;103247;-42
2021/06/09 06:36:28;;;;;;;;;;;21.20;99.90;;;20.61;68.13;101836.66;3510553;40;102176;-42
2021/06/09 06:38:56;;;;;;;;;;;21.30;99.90;;;20.84;67.73;101842.00;3510176;40;102311;-41
2021/06/09 06:41:25;;;;;;;;;;;21.50;99.90;;;21.05;66.56;101835.84;3510415;40;102195;-42
2021/06/09 06:43:54;;;;;;;;;;;21.70;99.90;;;21.13;65.33;101836.25;3509666;40;103247;-41
2021/06/09 06:46:23;;;;;;;;;;;21.80;99.90;;;21.26;64.00;101840.53;3509821;40;102984;-41
2021/06/09 06:48:54;;;;;;;;;;;21.90;99.90;;;21.33;63.42;101837.56;3509544;40;102309;-41
2021/06/09 06:51:23;;;;;;;;;;;22.10;99.90;;;21.42;65.54;101835.16;3509850;40;102422;-41
2021/06/09 06:53:54;;;;;;;;;;;22.10;99.90;;;21.59;64.00;101843.38;3509799;40;103144;-42
2021/06/09 06:56:24;;;;;;;;;;;22.20;99.90;;;21.76;64.86;101840.53;3509989;40;102238;-42
2021/06/09 06:58:54;;;;;;;;;;;22.40;99.90;;;21.82;62.85;101838.63;3509829;40;103161;-42
2021/06/09 07:01:31;;;;;;;;;;;22.50;99.90;;;21.76;61.86;101840.53;3509615;40;102123;-42
2021/06/09 07:04:00;;;;;;;;;;;22.40;99.90;;;21.92;62.59;101830.38;3510089;40;103125;-42
2021/06/09 07:06:28;;;;;;;;;;;22.50;99.90;;;22.10;60.99;101833.84;3509595;40;102210;-43
2021/06/09 07:09:07;;;;;;;;;;;22.70;99.90;;;22.16;60.50;101841.13;3510144;40;102870;-41
2021/06/09 07:11:37;;;;;;;;;;;22.80;99.90;;;22.23;59.51;101838.13;3510479;40;102310;-41
2021/06/09 07:14:07;;;;;;;;;;;22.90;99.90;;;22.19;58.48;101848.09;3509356;40;103094;-42
2021/06/09 07:16:36;;;;;;;;;;;22.90;99.90;;;22.08;59.04;101849.97;3509586;40;102286;-41
2021/06/09 07:19:06;;;;;;;;;;;22.90;99.90;;;22.19;59.80;101850.88;3509739;40;103061;-41
2021/06/09 07:21:34;;;;;;;;;;;23.00;99.90;;;22.36;60.57;101850.72;3510233;40;102243;-41
2021/06/09 07:24:02;;;;;;;;;;;23.00;99.90;;;22.55;59.79;101845.56;3509562;40;102317;-44
2021/06/09 07:26:41;;;;;;;;;;;23.20;99.90;;;22.77;60.77;101853.75;3509719;40;103084;-43
2021/06/09 07:29:09;;;;;;;;;;;23.30;99.90;;;22.93;59.70;101851.06;3509616;40;103354;-42
2021/06/09 07:31:39;;;;;;;;;;;23.50;99.90;;;23.07;58.24;101851.38;3509693;40;103056;-42
2021/06/09 07:34:08;;;;;;;;;;;23.60;99.90;;;23.02;58.16;101848.59;3509810;40;102408;-42
2021/06/09 07:36:41;;;;;;;;;;;23.70;99.90;;;23.06;57.38;101850.53;3511062;40;102283;-44
2021/06/09 07:39:15;;;;;;;;;;;23.70;99.90;;;23.15;56.93;101852.81;3511032;40;102356;-41
2021/06/09 07:41:44;;;;;;;;;;;23.80;99.90;;;23.02;57.52;101843.03;3511468;40;102337;-41
2021/06/09 07:44:15;;;;;;;;;;;23.90;99.90;;;23.04;56.10;101847.19;3511357;40;103399;-42
2021/06/09 07:46:43;;;;;;;;;;;23.90;99.90;;;23.20;56.12;101850.03;3511016;40;102433;-42
2021/06/09 07:49:13;;;;;;;;;;;23.90;99.90;;;23.30;55.68;101838.94;3510914;40;102662;-41
2021/06/09 07:51:42;;;;;;;;;;;;;;;23.37;57.22;101845.09;3510894;40;102395;-42
2021/06/09 07:54:12;;;;;;;;;;;23.90;99.90;;;23.45;55.74;101845.69;3511192;40;103405;-42
2021/06/09 07:56:43;;;;;;;;;;;;;;;23.61;56.52;101846.53;3510763;40;102375;-42
2021/06/09 07:59:12;;;;;;;;;;;;;;;23.69;55.83;101851.53;3510872;40;102295;-42
2021/06/09 08:01:41;;;;;;;;;;;;;;;23.75;54.40;101855.19;3510944;40;102419;-41
2021/06/09 08:04:10;;;;;;;;;;;;;;;23.81;55.98;101842.91;3511129;40;103207;-41
2021/06/09 08:06:38;;;;;;;;;;;;;;;23.98;56.52;101851.84;3510681;40;102322;-44
2021/06/09 08:09:07;;;;;;;;;;;;;;;24.18;55.93;101846.56;3511055;40;103146;-43
2021/06/09 08:11:36;;;;;;;;;;;;;;;24.16;54.29;101844.06;3511076;40;102328;-39
2021/06/09 08:14:06;;;;;;;;;;;;;;;24.34;56.63;101847.38;3510595;40;103347;-39
2021/06/09 08:16:36;;;;;;;;;;;;;;;24.31;52.23;101842.38;3510818;40;102570;-39
2021/06/09 08:19:04;;;;;;;;;;;;;;;24.42;52.98;101839.28;3510691;40;102123;-39
2021/06/09 08:21:33;;;;;;;;;;;;;;;24.47;54.01;101841.22;3510799;40;102357;-40
2021/06/09 08:24:01;;;;;;;;;;;;;;;24.30;52.55;101840.69;3510647;40;102675;-39
2021/06/09 08:26:30;;;;;;;;;;;;;;;24.38;53.61;101840.13;3648948;22;103298;-41
2021/06/09 08:28:58;;;;;;;;;;;;;;;24.51;53.65;101845.13;3526294;39;102454;-41
2021/06/09 08:31:27;;;;;;;;;;;;;;;24.69;52.38;101837.25;3531782;39;102257;-43
2021/06/09 08:33:56;;;;;;;;;;;;;;;24.82;54.12;101839.47;3531339;39;102473;-41
2021/06/09 08:36:24;;;;;;;;;;;;;;;24.88;50.58;101834.72;3524907;39;103155;-41
2021/06/09 08:38:55;;;;;;;;;;;;;;;24.92;51.06;101840.53;3520772;40;102421;-41
2021/06/09 08:41:27;;;;;;;;;;;;;;;24.77;52.62;101842.28;3521394;40;102396;-42
2021/06/09 08:43:56;;;;;;;;;;;;;;;24.96;51.81;101850.03;3520931;40;103065;-40
2021/06/09 08:46:24;;;;;;;;;;;;;;;25.11;51.61;101852.72;3521110;40;102301;-41
2021/06/09 08:48:54;;;;;;;;;;;;;;;25.16;51.22;101842.66;3520941;40;103130;-41
2021/06/09 08:51:23;;;;;;;;;;;;;;;25.22;49.90;101852.69;3521489;40;102292;-40
2021/06/09 08:53:52;;;;;;;;;;;;;;;25.19;49.25;101847.66;3520812;40;104252;-41
2021/06/09 08:56:21;;;;;;;;;;;;;;;25.28;50.13;101852.34;3521394;39;102210;-42
2021/06/09 08:58:50;;;;;;;;;;;;;;;25.11;50.61;101846.31;3521132;40;102229;-38
2021/06/09 09:01:18;;;;;;;;;;;;;;;25.08;48.05;101847.72;3520673;40;102154;-43
2021/06/09 09:03:48;;;;;;;;;;;;;;;25.05;48.99;101842.72;3521123;40;102182;-43
2021/06/09 09:06:16;;;;;;;;;;;;;;;25.19;48.06;101842.06;3520904;40;102786;-38
2021/06/09 09:08:44;;;;;;;;;;;;;;;25.46;51.65;101836.06;3520714;40;102274;-41
2021/06/09 09:11:12;;;;;;;;;;;;;;;25.62;49.82;101836.81;3520615;40;102530;-41
2021/06/09 09:13:41;;;;;;;;;;;;;;;25.60;47.10;101838.25;3521251;40;102654;-40
2021/06/09 09:16:08;;;;;;;;;;;;;;;25.65;48.90;101841.81;3521713;40;102846;-39
2021/06/09 09:18:38;;;;;;;;;;;;;;;25.42;48.25;101846.97;3521248;40;102155;-40
2021/06/09 09:21:06;;;;;;;;;;;;;;;25.65;50.31;101841.81;3521887;40;102417;-40
2021/06/09 09:23:35;;;;;;;;;;;;;;;25.70;49.07;101843.75;3520912;40;102189;-41
2021/06/09 09:26:42;;;;;;;;;;;;;;;25.94;50.62;101845.78;3521117;39;102177;-40
2021/06/09 09:29:21;;;;;;;;;;;;;;;26.12;42.42;101841.44;3490167;40;103490;-40
2021/06/09 09:31:50;;;;;;;;;;;;;;;26.28;48.06;101848.56;3490080;40;102316;-40
2021/06/09 09:34:28;;;;;;;;;;;;;;;26.41;46.90;101843.41;3508114;40;103024;-49
2021/06/09 09:37:04;;;;;;;;;;;;;;;26.30;44.52;101847.44;3521314;40;102389;-41
2021/06/09 09:39:34;;;;;;;;;;;;;;;26.61;44.31;101847.94;3520904;40;104200;-40
2021/06/09 09:42:17;;;;;;;;;;;;;;;26.86;45.96;101859.97;3521177;40;102379;-40
2021/06/09 09:44:45;;;;;;;;;;;;;;;26.94;42.24;101847.28;3521129;40;103707;-38
2021/06/09 09:47:14;;;;;;;;;;;;;;;26.85;44.06;101849.91;3520940;40;102344;-39
2021/06/09 09:49:42;;;;;;;;;;;;;;;26.97;45.96;101846.69;3520067;40;103201;-40
2021/06/09 09:52:10;;;;;;;;;;;;;;;27.19;45.20;101853.69;3521175;40;102444;-41
2021/06/09 09:54:40;;;;;;;;;;;;;;;27.11;45.12;101846.78;3520724;40;102325;-40
2021/06/09 09:57:09;;;;;;;;;;;;;;;26.84;45.03;101851.91;3511698;40;102254;-40
2021/06/09 09:59:37;;;;;;;;;;;;;;;26.75;46.11;101859.25;3520947;40;104255;-38
2021/06/09 10:02:15;;;;;;;;;;;;;;;26.66;43.99;101852.63;3520307;40;102436;-40
2021/06/09 10:04:51;;;;;;;;;;;;;;;26.56;47.62;101859.19;3520575;40;103459;-40
2021/06/09 10:07:19;;;;;;;;;;;;;;;26.61;45.30;101856.31;3520900;40;102884;-39
2021/06/09 10:09:47;;;;;;;;;;;;;;;26.84;48.25;101856.63;3520568;40;102915;-39
2021/06/09 10:12:16;;;;;;;;;;;;;;;26.97;43.87;101860.69;3520549;40;102205;-39
2021/06/09 10:14:49;;;;;;;;;;;;;;;26.60;45.15;101856.63;3520819;40;102180;-42
2021/06/09 10:17:23;;;;;;;;;;;;;;;26.52;44.94;101858.97;3520951;40;102489;-40
2021/06/09 10:19:54;;;;;;;;;;;;;;;26.22;46.31;101851.72;3521200;40;102368;-40
2021/06/09 10:22:25;;;;;;;;;;;;;;;26.10;46.80;101849.28;3520703;40;102167;-40
2021/06/09 10:24:54;;;;;;;;;;;;;;;25.99;47.43;101848.53;3520453;40;103833;-41
2021/06/09 10:27:41;;;;;;;;;;;;;;;25.70;46.99;101846.53;3520552;40;102716;-40
2021/06/09 10:30:09;;;;;;;;;;;;;;;25.52;48.54;101853.66;3521215;40;103110;-40
2021/06/09 10:32:36;;;;;;;;;;;;;;;25.56;48.91;101849.16;3520810;40;102659;-39
2021/06/09 10:35:06;;;;;;;;;;;;;;;25.63;48.06;101844.06;3520271;40;102201;-40
2021/06/09 10:37:35;;;;;;;;;;;;;;;25.91;46.92;101846.38;3520471;40;102293;-41
2021/06/09 10:40:03;;;;;;;;;;;;;;;26.15;43.08;101846.44;3520538;40;103082;-40
2021/06/09 10:42:31;;;;;;;;;;;;;;;26.43;44.38;101846.72;3520329;40;102439;-43
2021/06/09 10:45:00;;;;;;;;;;;;;;;26.61;46.33;101841.50;3520352;40;102310;-39
2021/06/09 10:47:32;;;;;;;;;;;;;;;26.79;45.05;101843.53;3520056;40;103177;-40
2021/06/09 10:50:00;;;;;;;;;;;;;;;26.74;41.18;101832.38;3520660;40;102319;-44
2021/06/09 10:52:28;;;;;;;;;;;;;;;27.12;45.10;101834.44;3520356;40;102194;-41
2021/06/09 10:54:56;;;;;;;;;;;;;;;27.33;45.79;101832.22;3520219;40;102246;-40
2021/06/09 10:57:25;;;;;;;;;;;;;;;27.31;41.32;101837.25;3511451;40;102492;-39
2021/06/09 10:59:53;;;;;;;;;;;;;;;27.46;42.15;101835.38;3520248;40;102213;-40
2021/06/09 11:02:23;;;;;;;;;;;;;;;27.64;43.13;101828.97;3520032;40;102420;-40
2021/06/09 11:04:53;;;;;;;;;;;;;;;27.76;40.89;101825.69;3519958;40;102951;-41
2021/06/09 11:07:40;;;;;;;;;;;;;;;27.99;40.43;101840.69;3520656;40;103705;-41
2021/06/09 11:10:12;;;;;;;;;;;;;;;27.96;41.80;101830.09;3521327;40;103248;-38
2021/06/09 11:12:41;;;;;;;;;;;;;;;27.42;38.83;101833.19;3521418;40;102408;-40
2021/06/09 11:15:19;;;;;;;;;;;;;;;26.90;41.89;101830.25;3521698;40;102272;-40
2021/06/09 11:17:48;;;;;;;;;;;;;;;27.03;40.46;101823.09;3521558;40;102463;-41
2021/06/09 11:20:37;;;;;;;;;;;;;;;26.94;39.81;101822.09;3521651;40;104049;-40
2021/06/09 11:23:05;;;;;;;;;;;;;;;27.08;40.03;101823.03;3521044;40;103282;-40
2021/06/09 11:25:43;;;;;;;;;;;;;;;27.21;39.66;101818.66;3521500;40;102454;-40
2021/06/09 11:28:15;;;;;;;;;;;;;;;27.64;43.14;101814.94;3521779;40;102614;-40
2021/06/09 11:30:46;;;;;;;;;;;;;;;27.77;41.33;101821.75;3521514;40;102695;-40
2021/06/09 11:33:32;;;;;;;;;;;;;;;27.79;38.94;101815.81;3521296;40;102590;-39
2021/06/09 11:36:02;;;;;;;;;;;;;;;27.68;39.63;101810.38;3521257;40;103653;-42
2021/06/09 11:38:31;;;;;;;;;;;;;;;27.74;40.95;101815.91;3520927;40;102165;-38
2021/06/09 11:41:01;;;;;;;;;;;;;;;28.03;42.82;101812.88;3520974;40;103102;-40
2021/06/09 11:43:34;;;;;;;;;;;;;;;28.20;39.03;101817.91;3521517;40;102965;-40